createdAt,value
2022-07-31T00:00:50.162Z,1011.38
2022-07-31T00:01:50.181Z,1011.42
2022-07-31T00:02:50.201Z,1011.42
2022-07-31T00:03:50.369Z,1011.43
2022-07-31T00:04:50.242Z,1011.40
2022-07-31T00:05:50.266Z,1011.41
2022-07-31T00:06:50.283Z,1011.38
2022-07-31T00:07:50.303Z,1011.36
2022-07-31T00:08:50.322Z,1011.35
2022-07-31T00:09:53.906Z,1011.32
2022-07-31T00:10:50.366Z,1011.33
2022-07-31T00:11:50.386Z,1011.35
2022-07-31T00:12:50.404Z,1011.29
2022-07-31T00:13:58.172Z,1011.33
2022-07-31T00:14:50.446Z,1011.29
2022-07-31T00:15:50.473Z,1011.32
2022-07-31T00:16:50.486Z,1011.29
2022-07-31T00:17:50.507Z,1011.30
2022-07-31T00:18:50.531Z,1011.29
2022-07-31T00:19:50.546Z,1011.30
2022-07-31T00:20:50.565Z,1011.30
2022-07-31T00:21:50.586Z,1011.29
2022-07-31T00:22:50.660Z,1011.29
2022-07-31T00:23:50.633Z,1011.30
2022-07-31T00:24:50.646Z,1011.29
2022-07-31T00:25:50.667Z,1011.26
2022-07-31T00:26:52.933Z,1011.29
2022-07-31T00:27:50.711Z,1011.29
2022-07-31T00:28:50.727Z,1011.28
2022-07-31T00:29:50.748Z,1011.27
2022-07-31T00:30:50.770Z,1011.25
2022-07-31T00:31:50.787Z,1011.31
2022-07-31T00:32:51.997Z,1011.25
2022-07-31T00:33:50.829Z,1011.25
2022-07-31T00:34:50.850Z,1011.25
2022-07-31T00:35:50.870Z,1011.23
2022-07-31T00:36:50.893Z,1011.20
2022-07-31T00:37:54.800Z,1011.24
2022-07-31T00:38:50.928Z,1011.20
2022-07-31T00:39:50.951Z,1011.15
2022-07-31T00:40:50.967Z,1011.14
2022-07-31T00:41:50.990Z,1011.10
2022-07-31T00:42:51.011Z,1011.08
2022-07-31T00:43:51.029Z,1011.07
2022-07-31T00:44:51.048Z,1011.07
2022-07-31T00:45:58.630Z,1011.09
2022-07-31T00:46:51.092Z,1011.09
2022-07-31T00:47:51.110Z,1011.07
2022-07-31T00:48:51.172Z,1011.02
2022-07-31T00:49:51.151Z,1011.03
2022-07-31T00:50:51.170Z,1011.02
2022-07-31T00:51:51.193Z,1011.01
2022-07-31T00:52:51.210Z,1011.01
2022-07-31T00:53:51.230Z,1011.02
2022-07-31T00:54:51.249Z,1011.02
2022-07-31T00:55:52.185Z,1011.04
2022-07-31T00:56:51.294Z,1011.00
2022-07-31T00:57:51.311Z,1010.99
2022-07-31T00:58:51.335Z,1011.05
2022-07-31T00:59:51.350Z,1011.02
2022-07-31T01:00:51.469Z,1011.01
2022-07-31T01:01:51.393Z,1011.03
2022-07-31T01:02:51.414Z,1011.07
2022-07-31T01:03:51.442Z,1011.11
2022-07-31T01:04:51.465Z,1011.09
2022-07-31T01:05:51.471Z,1011.06
2022-07-31T01:06:51.504Z,1011.06
2022-07-31T01:07:51.509Z,1011.10
2022-07-31T01:08:51.528Z,1011.09
2022-07-31T01:09:51.550Z,1011.09
2022-07-31T01:10:51.571Z,1011.07
2022-07-31T01:11:51.593Z,1011.03
2022-07-31T01:12:54.211Z,1011.02
2022-07-31T01:13:51.628Z,1010.96
2022-07-31T01:14:51.649Z,1010.99
2022-07-31T01:15:51.669Z,1010.99
2022-07-31T01:16:51.690Z,1011.00
2022-07-31T01:17:51.707Z,1011.04
2022-07-31T01:18:51.727Z,1011.04
2022-07-31T01:19:51.747Z,1011.06
2022-07-31T01:20:51.768Z,1011.05
2022-07-31T01:21:51.791Z,1011.07
2022-07-31T01:22:51.808Z,1011.08
2022-07-31T01:23:55.265Z,1011.05
2022-07-31T01:24:51.846Z,1011.06
2022-07-31T01:25:51.866Z,1010.98
2022-07-31T01:26:51.887Z,1011.03
2022-07-31T01:27:51.906Z,1011.04
2022-07-31T01:28:51.928Z,1011.04
2022-07-31T01:29:51.947Z,1011.00
2022-07-31T01:31:05.092Z,1011.05
2022-07-31T01:31:51.986Z,1011.05
2022-07-31T01:32:52.005Z,1011.02
2022-07-31T01:33:52.047Z,1011.07
2022-07-31T01:34:52.047Z,1011.09
2022-07-31T01:35:52.064Z,1011.09
2022-07-31T01:36:52.086Z,1011.13
2022-07-31T01:37:52.104Z,1011.15
2022-07-31T01:38:52.123Z,1011.14
2022-07-31T01:39:52.144Z,1011.14
2022-07-31T01:40:52.163Z,1011.11
2022-07-31T01:41:52.183Z,1011.10
2022-07-31T01:42:52.202Z,1011.12
2022-07-31T01:43:52.224Z,1011.16
2022-07-31T01:44:52.244Z,1011.15
2022-07-31T01:45:52.262Z,1011.13
2022-07-31T01:46:52.283Z,1011.14
2022-07-31T01:47:52.302Z,1011.16
2022-07-31T01:48:52.400Z,1011.14
2022-07-31T01:49:52.342Z,1011.14
2022-07-31T01:50:52.361Z,1011.11
2022-07-31T01:51:52.760Z,1011.12
2022-07-31T01:52:52.398Z,1011.10
2022-07-31T01:53:52.418Z,1011.12
2022-07-31T01:54:52.449Z,1011.07
2022-07-31T01:55:56.943Z,1011.06
2022-07-31T01:56:52.483Z,1011.06
2022-07-31T01:57:52.498Z,1011.03
2022-07-31T01:58:52.518Z,1010.99
2022-07-31T01:59:54.781Z,1011.03
2022-07-31T02:00:52.645Z,1010.97
2022-07-31T02:01:52.576Z,1011.00
2022-07-31T02:02:52.597Z,1011.02
2022-07-31T02:03:56.127Z,1010.98
2022-07-31T02:04:52.634Z,1011.04
2022-07-31T02:05:52.653Z,1011.02
2022-07-31T02:06:52.676Z,1011.05
2022-07-31T02:07:52.693Z,1011.04
2022-07-31T02:08:52.712Z,1011.03
2022-07-31T02:09:58.740Z,1011.02
2022-07-31T02:10:52.751Z,1010.98
2022-07-31T02:11:54.688Z,1010.99
2022-07-31T02:12:52.795Z,1010.91
2022-07-31T02:13:52.812Z,1010.94
2022-07-31T02:14:52.831Z,1010.94
2022-07-31T02:15:52.851Z,1010.91
2022-07-31T02:16:52.868Z,1010.90
2022-07-31T02:17:52.893Z,1010.88
2022-07-31T02:18:52.911Z,1010.89
2022-07-31T02:19:59.841Z,1010.88
2022-07-31T02:20:52.946Z,1010.84
2022-07-31T02:21:52.968Z,1010.88
2022-07-31T02:22:52.989Z,1010.93
2022-07-31T02:23:53.007Z,1011.01
2022-07-31T02:24:53.025Z,1011.04
2022-07-31T02:25:53.048Z,1011.01
2022-07-31T02:26:53.063Z,1011.04
2022-07-31T02:27:57.459Z,1011.04
2022-07-31T02:28:53.103Z,1011.03
2022-07-31T02:29:53.123Z,1011.05
2022-07-31T02:30:53.143Z,1011.05
2022-07-31T02:32:03.095Z,1011.04
2022-07-31T02:32:53.180Z,1011.04
2022-07-31T02:33:53.200Z,1011.00
2022-07-31T02:34:53.222Z,1011.01
2022-07-31T02:35:53.240Z,1011.10
2022-07-31T02:36:53.258Z,1011.08
2022-07-31T02:37:53.280Z,1011.07
2022-07-31T02:38:53.297Z,1011.04
2022-07-31T02:39:53.317Z,1011.02
2022-07-31T02:40:53.344Z,1011.00
2022-07-31T02:41:53.370Z,1011.02
2022-07-31T02:42:53.376Z,1011.01
2022-07-31T02:43:53.395Z,1010.98
2022-07-31T02:44:53.425Z,1010.99
2022-07-31T02:45:53.435Z,1011.05
2022-07-31T02:46:53.453Z,1011.01
2022-07-31T02:47:53.474Z,1010.97
2022-07-31T02:48:53.527Z,1010.97
2022-07-31T02:49:53.512Z,1010.89
2022-07-31T02:50:53.535Z,1010.89
2022-07-31T02:51:53.550Z,1010.86
2022-07-31T02:52:53.569Z,1010.84
2022-07-31T02:53:53.591Z,1010.83
2022-07-31T02:54:53.607Z,1010.80
2022-07-31T02:55:53.628Z,1010.79
2022-07-31T02:56:53.651Z,1010.77
2022-07-31T02:57:53.670Z,1010.78
2022-07-31T02:58:53.687Z,1010.78
2022-07-31T02:59:53.707Z,1010.76
2022-07-31T03:00:53.802Z,1010.74
2022-07-31T03:01:53.742Z,1010.73
2022-07-31T03:02:53.762Z,1010.74
2022-07-31T03:03:53.781Z,1010.75
2022-07-31T03:04:53.800Z,1010.76
2022-07-31T03:05:53.819Z,1010.78
2022-07-31T03:06:53.841Z,1010.75
2022-07-31T03:07:53.868Z,1010.73
2022-07-31T03:08:53.876Z,1010.74
2022-07-31T03:09:53.896Z,1010.72
2022-07-31T03:10:53.917Z,1010.71
2022-07-31T03:11:53.936Z,1010.68
2022-07-31T03:12:53.953Z,1010.73
2022-07-31T03:13:53.974Z,1010.73
2022-07-31T03:14:53.993Z,1010.72
2022-07-31T03:15:54.012Z,1010.72
2022-07-31T03:16:54.032Z,1010.73
2022-07-31T03:17:54.048Z,1010.70
2022-07-31T03:18:54.073Z,1010.73
2022-07-31T03:19:54.191Z,1010.74
2022-07-31T03:20:54.107Z,1010.76
2022-07-31T03:21:54.134Z,1010.72
2022-07-31T03:22:54.147Z,1010.78
2022-07-31T03:23:54.166Z,1010.76
2022-07-31T03:24:54.183Z,1010.80
2022-07-31T03:25:54.204Z,1010.82
2022-07-31T03:26:54.224Z,1010.86
2022-07-31T03:27:56.723Z,1010.82
2022-07-31T03:28:54.261Z,1010.88
2022-07-31T03:29:54.277Z,1010.82
2022-07-31T03:30:56.142Z,1010.84
2022-07-31T03:31:54.318Z,1010.82
2022-07-31T03:32:54.351Z,1010.78
2022-07-31T03:33:54.361Z,1010.79
2022-07-31T03:34:54.380Z,1010.78
2022-07-31T03:35:54.417Z,1010.82
2022-07-31T03:36:54.412Z,1010.78
2022-07-31T03:37:54.435Z,1010.82
2022-07-31T03:38:54.454Z,1010.79
2022-07-31T03:39:54.471Z,1010.77
2022-07-31T03:40:54.489Z,1010.77
2022-07-31T03:41:54.508Z,1010.76
2022-07-31T03:42:54.529Z,1010.80
2022-07-31T03:43:54.547Z,1010.77
2022-07-31T03:44:54.566Z,1010.79
2022-07-31T03:45:54.592Z,1010.76
2022-07-31T03:46:54.603Z,1010.76
2022-07-31T03:47:54.624Z,1010.74
2022-07-31T03:48:54.683Z,1010.74
2022-07-31T03:49:54.666Z,1010.70
2022-07-31T03:50:54.680Z,1010.73
2022-07-31T03:51:54.698Z,1010.73
2022-07-31T03:52:54.720Z,1010.71
2022-07-31T03:53:54.737Z,1010.68
2022-07-31T03:54:54.758Z,1010.73
2022-07-31T03:55:54.776Z,1010.75
2022-07-31T03:56:54.796Z,1010.76
2022-07-31T03:57:54.812Z,1010.79
2022-07-31T03:58:54.834Z,1010.79
2022-07-31T03:59:54.854Z,1010.82
2022-07-31T04:00:54.872Z,1010.82
2022-07-31T04:02:07.442Z,1010.81
2022-07-31T04:02:54.977Z,1010.83
2022-07-31T04:03:54.945Z,1010.80
2022-07-31T04:04:54.949Z,1010.82
2022-07-31T04:05:54.968Z,1010.83
2022-07-31T04:06:54.993Z,1010.83
2022-07-31T04:07:55.008Z,1010.86
2022-07-31T04:08:55.027Z,1010.84
2022-07-31T04:09:55.048Z,1010.84
2022-07-31T04:10:55.064Z,1010.83
2022-07-31T04:11:55.083Z,1010.86
2022-07-31T04:12:55.101Z,1010.83
2022-07-31T04:13:55.118Z,1010.85
2022-07-31T04:14:55.138Z,1010.91
2022-07-31T04:15:55.158Z,1010.87
2022-07-31T04:16:55.178Z,1010.91
2022-07-31T04:17:55.199Z,1010.86
2022-07-31T04:18:55.214Z,1010.89
2022-07-31T04:19:55.238Z,1010.87
2022-07-31T04:20:55.256Z,1010.84
2022-07-31T04:21:55.280Z,1010.79
2022-07-31T04:22:55.806Z,1010.77
2022-07-31T04:23:55.313Z,1010.80
2022-07-31T04:24:55.341Z,1010.81
2022-07-31T04:25:55.350Z,1010.82
2022-07-31T04:26:55.370Z,1010.85
2022-07-31T04:27:55.396Z,1010.84
2022-07-31T04:28:55.409Z,1010.84
2022-07-31T04:29:55.430Z,1010.84
2022-07-31T04:30:55.448Z,1010.86
2022-07-31T04:31:55.468Z,1010.88
2022-07-31T04:32:55.485Z,1010.87
2022-07-31T04:33:57.080Z,1010.90
2022-07-31T04:34:55.527Z,1010.87
2022-07-31T04:35:55.548Z,1010.92
2022-07-31T04:36:55.564Z,1010.92
2022-07-31T04:37:55.588Z,1010.91
2022-07-31T04:38:55.604Z,1010.90
2022-07-31T04:39:55.623Z,1010.93
2022-07-31T04:40:55.641Z,1010.88
2022-07-31T04:41:55.661Z,1010.89
2022-07-31T04:42:55.682Z,1010.87
2022-07-31T04:43:55.701Z,1010.89
2022-07-31T04:44:55.718Z,1010.91
2022-07-31T04:45:55.737Z,1010.88
2022-07-31T04:46:55.757Z,1010.85
2022-07-31T04:47:55.778Z,1010.89
2022-07-31T04:48:55.881Z,1010.91
2022-07-31T04:49:55.836Z,1010.90
2022-07-31T04:50:55.848Z,1010.87
2022-07-31T04:51:55.858Z,1010.90
2022-07-31T04:52:55.874Z,1010.93
2022-07-31T04:53:55.895Z,1010.92
2022-07-31T04:54:55.916Z,1010.92
2022-07-31T04:55:55.934Z,1010.89
2022-07-31T04:56:55.958Z,1010.88
2022-07-31T04:57:55.978Z,1010.89
2022-07-31T04:58:55.993Z,1010.93
2022-07-31T04:59:59.782Z,1010.92
2022-07-31T05:00:56.032Z,1010.98
2022-07-31T05:01:56.102Z,1010.99
2022-07-31T05:02:56.072Z,1010.99
2022-07-31T05:03:56.091Z,1010.98
2022-07-31T05:04:56.898Z,1010.96
2022-07-31T05:05:56.131Z,1010.99
2022-07-31T05:06:56.154Z,1011.02
2022-07-31T05:07:56.171Z,1010.98
2022-07-31T05:08:56.190Z,1011.01
2022-07-31T05:09:56.222Z,1010.96
2022-07-31T05:10:56.232Z,1010.97
2022-07-31T05:11:56.252Z,1011.02
2022-07-31T05:12:56.269Z,1011.01
2022-07-31T05:13:56.289Z,1011.00
2022-07-31T05:14:56.309Z,1011.03
2022-07-31T05:15:56.328Z,1011.04
2022-07-31T05:16:56.350Z,1011.06
2022-07-31T05:17:56.369Z,1011.12
2022-07-31T05:18:56.388Z,1011.09
2022-07-31T05:19:56.408Z,1011.13
2022-07-31T05:20:56.428Z,1011.07
2022-07-31T05:21:58.114Z,1011.09
2022-07-31T05:22:56.469Z,1011.07
2022-07-31T05:23:56.489Z,1011.06
2022-07-31T05:24:56.508Z,1011.08
2022-07-31T05:25:56.530Z,1011.09
2022-07-31T05:26:56.550Z,1011.10
2022-07-31T05:27:56.568Z,1011.12
2022-07-31T05:28:58.432Z,1011.10
2022-07-31T05:29:56.609Z,1011.08
2022-07-31T05:30:56.629Z,1011.10
2022-07-31T05:31:59.652Z,1011.06
2022-07-31T05:32:56.675Z,1011.11
2022-07-31T05:33:56.701Z,1011.09
2022-07-31T05:34:56.711Z,1011.06
2022-07-31T05:35:56.732Z,1011.07
2022-07-31T05:36:56.750Z,1011.03
2022-07-31T05:37:56.773Z,1011.10
2022-07-31T05:38:56.793Z,1011.06
2022-07-31T05:39:56.813Z,1011.04
2022-07-31T05:40:56.833Z,1011.08
2022-07-31T05:41:56.865Z,1011.10
2022-07-31T05:42:56.875Z,1011.06
2022-07-31T05:43:56.900Z,1011.14
2022-07-31T05:44:56.919Z,1011.13
2022-07-31T05:45:56.939Z,1011.16
2022-07-31T05:47:40.684Z,1011.20
2022-07-31T05:48:36.093Z,1011.19
2022-07-31T05:49:36.136Z,1011.19
2022-07-31T05:50:36.140Z,1011.22
2022-07-31T05:51:36.160Z,1011.18
2022-07-31T05:52:36.176Z,1011.18
2022-07-31T05:53:36.202Z,1011.22
2022-07-31T05:54:36.222Z,1011.22
2022-07-31T05:55:36.260Z,1011.21
2022-07-31T05:56:36.266Z,1011.18
2022-07-31T05:57:36.287Z,1011.22
2022-07-31T05:58:36.306Z,1011.19
2022-07-31T05:59:36.328Z,1011.21
2022-07-31T06:00:36.356Z,1011.20
2022-07-31T06:01:36.435Z,1011.18
2022-07-31T06:02:36.391Z,1011.16
2022-07-31T06:03:50.525Z,1011.18
2022-07-31T06:04:36.433Z,1011.16
2022-07-31T06:05:36.456Z,1011.17
2022-07-31T06:06:36.478Z,1011.19
2022-07-31T06:07:36.508Z,1011.17
2022-07-31T06:08:36.523Z,1011.21
2022-07-31T06:09:36.541Z,1011.21
2022-07-31T06:10:36.563Z,1011.19
2022-07-31T06:11:36.585Z,1011.19
2022-07-31T06:12:36.609Z,1011.23
2022-07-31T06:13:36.630Z,1011.24
2022-07-31T06:14:36.652Z,1011.21
2022-07-31T06:15:36.954Z,1011.19
2022-07-31T06:16:36.695Z,1011.20
2022-07-31T06:17:40.600Z,1011.18
2022-07-31T06:18:36.738Z,1011.20
2022-07-31T06:19:36.760Z,1011.19
2022-07-31T06:20:37.231Z,1011.21
2022-07-31T06:21:36.803Z,1011.24
2022-07-31T06:22:36.825Z,1011.24
2022-07-31T06:23:36.850Z,1011.22
2022-07-31T06:24:36.868Z,1011.21
2022-07-31T06:25:38.889Z,1011.24
2022-07-31T06:26:36.913Z,1011.26
2022-07-31T06:27:36.934Z,1011.24
2022-07-31T06:28:48.753Z,1011.23
2022-07-31T06:29:40.916Z,1011.25
2022-07-31T06:30:37.005Z,1011.21
2022-07-31T06:31:37.028Z,1011.18
2022-07-31T06:32:37.047Z,1011.16
2022-07-31T06:33:37.998Z,1011.21
2022-07-31T06:34:37.093Z,1011.25
2022-07-31T06:35:37.116Z,1011.28
2022-07-31T06:36:37.140Z,1011.26
2022-07-31T06:37:37.162Z,1011.27
2022-07-31T06:38:37.183Z,1011.29
2022-07-31T06:39:56.141Z,1011.30
2022-07-31T06:40:37.241Z,1011.33
2022-07-31T06:41:37.257Z,1011.33
2022-07-31T06:42:37.278Z,1011.30
2022-07-31T06:43:37.307Z,1011.26
2022-07-31T06:44:46.162Z,1011.26
2022-07-31T06:45:51.933Z,1011.30
2022-07-31T06:46:37.374Z,1011.28
2022-07-31T06:47:37.398Z,1011.29
2022-07-31T06:48:37.442Z,1011.30
2022-07-31T06:49:37.572Z,1011.35
2022-07-31T06:50:37.472Z,1011.36
2022-07-31T06:51:37.499Z,1011.33
2022-07-31T06:52:37.524Z,1011.33
2022-07-31T06:53:37.550Z,1011.31
2022-07-31T06:54:37.573Z,1011.30
2022-07-31T06:55:37.600Z,1011.29
2022-07-31T06:56:37.624Z,1011.32
2022-07-31T06:57:37.652Z,1011.35
2022-07-31T06:58:37.678Z,1011.35
2022-07-31T06:59:40.107Z,1011.34
2022-07-31T07:00:37.739Z,1011.29
2022-07-31T07:01:37.833Z,1011.33
2022-07-31T07:02:37.783Z,1011.31
2022-07-31T07:03:37.812Z,1011.30
2022-07-31T07:04:56.344Z,1011.32
2022-07-31T07:05:37.864Z,1011.29
2022-07-31T07:06:37.893Z,1011.30
2022-07-31T07:07:37.920Z,1011.27
2022-07-31T07:08:37.945Z,1011.27
2022-07-31T07:09:37.975Z,1011.25
2022-07-31T07:10:38.003Z,1011.27
2022-07-31T07:11:38.030Z,1011.24
2022-07-31T07:12:38.054Z,1011.27
2022-07-31T07:13:46.031Z,1011.25
2022-07-31T07:14:38.113Z,1011.24
2022-07-31T07:15:38.142Z,1011.26
2022-07-31T07:16:38.168Z,1011.19
2022-07-31T07:17:38.199Z,1011.12
2022-07-31T07:18:38.225Z,1011.13
2022-07-31T07:19:38.253Z,1011.13
2022-07-31T07:20:38.281Z,1011.19
2022-07-31T07:21:38.310Z,1011.17
2022-07-31T07:22:38.339Z,1011.24
2022-07-31T07:23:38.390Z,1011.22
2022-07-31T07:24:38.396Z,1011.26
2022-07-31T07:25:38.425Z,1011.22
2022-07-31T07:26:38.459Z,1011.20
2022-07-31T07:27:38.488Z,1011.20
2022-07-31T07:28:38.509Z,1011.17
2022-07-31T07:29:38.538Z,1011.17
2022-07-31T07:30:38.570Z,1011.18
2022-07-31T07:31:38.598Z,1011.14
2022-07-31T07:32:38.625Z,1011.14
2022-07-31T07:33:41.136Z,1011.12
2022-07-31T07:34:38.684Z,1011.12
2022-07-31T07:35:38.712Z,1011.07
2022-07-31T07:36:38.742Z,1011.10
2022-07-31T07:37:39.261Z,1011.08
2022-07-31T07:38:38.799Z,1011.03
2022-07-31T07:39:38.830Z,1011.06
2022-07-31T07:40:38.858Z,1011.06
2022-07-31T07:41:38.889Z,1011.07
2022-07-31T07:42:38.918Z,1011.08
2022-07-31T07:43:38.951Z,1011.09
2022-07-31T07:44:38.979Z,1011.11
2022-07-31T07:45:39.005Z,1011.04
2022-07-31T07:46:39.037Z,1011.05
2022-07-31T07:47:53.885Z,1011.00
2022-07-31T07:48:39.096Z,1011.02
2022-07-31T07:49:39.132Z,1010.99
2022-07-31T07:50:39.159Z,1010.97
2022-07-31T07:51:59.363Z,1010.95
2022-07-31T07:52:43.546Z,1010.89
2022-07-31T07:53:39.248Z,1010.88
2022-07-31T07:54:39.284Z,1010.91
2022-07-31T07:55:39.316Z,1010.85
2022-07-31T07:56:39.340Z,1010.86
2022-07-31T07:57:39.372Z,1010.84
2022-07-31T07:58:39.403Z,1010.86
2022-07-31T07:59:39.434Z,1010.85
2022-07-31T08:00:39.464Z,1010.83
2022-07-31T08:01:39.543Z,1010.83
2022-07-31T08:02:39.527Z,1010.85
2022-07-31T08:03:48.719Z,1010.88
2022-07-31T08:04:39.590Z,1010.79
2022-07-31T08:05:39.624Z,1010.84
2022-07-31T08:06:39.655Z,1010.80
2022-07-31T08:07:41.650Z,1010.72
2022-07-31T08:08:39.716Z,1010.77
2022-07-31T08:09:39.750Z,1010.80
2022-07-31T08:10:39.779Z,1010.80
2022-07-31T08:11:39.809Z,1010.82
2022-07-31T08:12:39.841Z,1010.83
2022-07-31T08:13:39.876Z,1010.85
2022-07-31T08:14:39.906Z,1010.85
2022-07-31T08:15:39.942Z,1010.88
2022-07-31T08:16:39.970Z,1010.85
2022-07-31T08:17:40.000Z,1010.80
2022-07-31T08:18:40.031Z,1010.83
2022-07-31T08:19:40.063Z,1010.86
2022-07-31T08:20:40.098Z,1010.81
2022-07-31T08:21:40.127Z,1010.84
2022-07-31T08:22:40.162Z,1010.84
2022-07-31T08:23:40.192Z,1010.83
2022-07-31T08:24:40.222Z,1010.84
2022-07-31T08:25:40.255Z,1010.87
2022-07-31T08:26:40.289Z,1010.90
2022-07-31T08:27:40.792Z,1010.84
2022-07-31T08:28:40.353Z,1010.88
2022-07-31T08:29:40.382Z,1010.87
2022-07-31T08:30:40.417Z,1010.89
2022-07-31T08:31:40.448Z,1010.90
2022-07-31T08:32:40.481Z,1010.90
2022-07-31T08:33:40.511Z,1010.86
2022-07-31T08:34:42.022Z,1010.85
2022-07-31T08:35:40.578Z,1010.76
2022-07-31T08:36:40.609Z,1010.74
2022-07-31T08:38:01.881Z,1010.76
2022-07-31T08:38:40.678Z,1010.77
2022-07-31T08:39:40.705Z,1010.80
2022-07-31T08:40:43.137Z,1010.86
2022-07-31T08:41:40.768Z,1010.82
2022-07-31T08:42:40.798Z,1010.80
2022-07-31T08:44:02.436Z,1010.78
2022-07-31T08:44:40.860Z,1010.80
2022-07-31T08:45:40.893Z,1010.79
2022-07-31T08:46:40.967Z,1010.77
2022-07-31T08:47:40.958Z,1010.75
2022-07-31T08:48:40.988Z,1010.73
2022-07-31T08:49:41.091Z,1010.72
2022-07-31T08:50:41.047Z,1010.67
2022-07-31T08:51:51.307Z,1010.60
2022-07-31T08:52:41.118Z,1010.54
2022-07-31T08:53:41.140Z,1010.56
2022-07-31T08:54:41.172Z,1010.61
2022-07-31T08:55:56.216Z,1010.62
2022-07-31T08:56:41.234Z,1010.62
2022-07-31T08:57:41.263Z,1010.58
2022-07-31T08:58:41.294Z,1010.60
2022-07-31T08:59:41.324Z,1010.53
2022-07-31T09:00:41.403Z,1010.57
2022-07-31T09:01:41.446Z,1010.50
2022-07-31T09:02:41.413Z,1010.56
2022-07-31T09:03:41.446Z,1010.53
2022-07-31T09:04:41.474Z,1010.53
2022-07-31T09:05:41.942Z,1010.53
2022-07-31T09:06:41.537Z,1010.58
2022-07-31T09:07:41.565Z,1010.56
2022-07-31T09:08:41.596Z,1010.59
2022-07-31T09:09:51.023Z,1010.49
2022-07-31T09:10:45.021Z,1010.49
2022-07-31T09:11:41.689Z,1010.48
2022-07-31T09:12:41.719Z,1010.47
2022-07-31T09:13:41.750Z,1010.46
2022-07-31T09:14:41.782Z,1010.47
2022-07-31T09:15:41.814Z,1010.46
2022-07-31T09:16:41.845Z,1010.44
2022-07-31T09:17:41.872Z,1010.49
2022-07-31T09:18:41.905Z,1010.46
2022-07-31T09:19:52.397Z,1010.43
2022-07-31T09:20:41.966Z,1010.47
2022-07-31T09:21:41.998Z,1010.55
2022-07-31T09:22:42.038Z,1010.47
2022-07-31T09:23:42.063Z,1010.44
2022-07-31T09:24:42.091Z,1010.46
2022-07-31T09:25:42.122Z,1010.44
2022-07-31T09:26:42.153Z,1010.40
2022-07-31T09:27:42.185Z,1010.40
2022-07-31T09:28:42.218Z,1010.43
2022-07-31T09:29:42.271Z,1010.37
2022-07-31T09:30:55.604Z,1010.50
2022-07-31T09:31:42.311Z,1010.41
2022-07-31T09:32:42.341Z,1010.37
2022-07-31T09:33:45.652Z,1010.35
2022-07-31T09:34:42.402Z,1010.29
2022-07-31T09:35:42.433Z,1010.28
2022-07-31T09:36:42.468Z,1010.44
2022-07-31T09:37:42.519Z,1010.21
2022-07-31T09:38:42.528Z,1010.37
2022-07-31T09:39:52.326Z,1010.42
2022-07-31T09:40:55.329Z,1010.31
2022-07-31T09:42:01.079Z,1010.18
2022-07-31T09:42:46.053Z,1010.18
2022-07-31T09:43:46.176Z,1010.37
2022-07-31T09:44:42.709Z,1010.39
2022-07-31T09:45:47.998Z,1010.21
2022-07-31T09:46:42.772Z,1010.25
2022-07-31T09:47:42.809Z,1010.20
2022-07-31T09:48:44.092Z,1010.25
2022-07-31T09:49:42.859Z,1010.39
2022-07-31T09:50:42.891Z,1010.37
2022-07-31T09:51:42.921Z,1010.37
2022-07-31T09:52:42.951Z,1010.30
2022-07-31T09:53:43.685Z,1010.36
2022-07-31T09:54:43.013Z,1010.31
2022-07-31T09:55:43.039Z,1010.35
2022-07-31T09:56:43.072Z,1010.35
2022-07-31T09:57:47.910Z,1010.32
2022-07-31T09:58:43.132Z,1010.36
2022-07-31T09:59:43.161Z,1010.30
2022-07-31T10:00:43.265Z,1010.34
2022-07-31T10:01:43.221Z,1010.26
2022-07-31T10:02:43.281Z,1010.28
2022-07-31T10:03:43.287Z,1010.26
2022-07-31T10:04:43.313Z,1010.23
2022-07-31T10:05:43.348Z,1010.22
2022-07-31T10:06:43.377Z,1010.20
2022-07-31T10:07:43.407Z,1010.23
2022-07-31T10:08:43.440Z,1010.21
2022-07-31T10:09:43.475Z,1010.16
2022-07-31T10:10:43.505Z,1010.19
2022-07-31T10:11:43.533Z,1010.18
2022-07-31T10:12:43.638Z,1010.33
2022-07-31T10:13:43.609Z,1010.30
2022-07-31T10:14:43.629Z,1010.28
2022-07-31T10:15:43.666Z,1010.27
2022-07-31T10:16:43.695Z,1010.32
2022-07-31T10:17:43.727Z,1010.33
2022-07-31T10:18:44.529Z,1010.31
2022-07-31T10:19:43.795Z,1010.27
2022-07-31T10:20:43.827Z,1010.21
2022-07-31T10:21:43.859Z,1010.18
2022-07-31T10:22:43.897Z,1010.19
2022-07-31T10:23:43.927Z,1010.18
2022-07-31T10:24:43.960Z,1010.21
2022-07-31T10:25:43.995Z,1010.23
2022-07-31T10:27:00.174Z,1010.17
2022-07-31T10:27:44.071Z,1010.15
2022-07-31T10:28:44.100Z,1010.13
2022-07-31T10:29:44.135Z,1010.15
2022-07-31T10:30:44.168Z,1010.12
2022-07-31T10:31:44.203Z,1010.12
2022-07-31T10:32:44.236Z,1010.10
2022-07-31T10:33:45.063Z,1010.16
2022-07-31T10:34:44.311Z,1010.10
2022-07-31T10:35:44.345Z,1010.13
2022-07-31T10:36:44.380Z,1010.10
2022-07-31T10:37:44.419Z,1010.09
2022-07-31T10:38:44.453Z,1010.14
2022-07-31T10:39:44.488Z,1010.13
2022-07-31T10:40:44.526Z,1010.14
2022-07-31T10:41:44.560Z,1010.13
2022-07-31T10:42:44.601Z,1010.08
2022-07-31T10:43:44.637Z,1009.92
2022-07-31T10:44:44.670Z,1010.10
2022-07-31T10:45:44.712Z,1010.11
2022-07-31T10:46:44.745Z,1010.08
2022-07-31T10:47:48.115Z,1010.09
2022-07-31T10:48:44.818Z,1010.06
2022-07-31T10:49:44.881Z,1010.05
2022-07-31T10:50:44.890Z,1010.05
2022-07-31T10:51:44.929Z,1010.08
2022-07-31T10:52:44.970Z,1010.02
2022-07-31T10:53:51.015Z,1009.97
2022-07-31T10:54:45.050Z,1009.99
2022-07-31T10:55:45.076Z,1009.88
2022-07-31T10:56:45.112Z,1009.82
2022-07-31T10:57:57.241Z,1009.90
2022-07-31T10:58:45.186Z,1009.88
2022-07-31T10:59:45.223Z,1009.89
2022-07-31T11:00:45.260Z,1009.80
2022-07-31T11:01:53.114Z,1009.74
2022-07-31T11:02:45.335Z,1009.99
2022-07-31T11:03:45.371Z,1009.96
2022-07-31T11:04:45.409Z,1009.93
2022-07-31T11:06:01.156Z,1009.84
2022-07-31T11:06:45.484Z,1010.05
2022-07-31T11:07:45.520Z,1010.04
2022-07-31T11:08:45.554Z,1009.99
2022-07-31T11:09:51.137Z,1010.06
2022-07-31T11:10:45.627Z,1010.05
2022-07-31T11:11:45.664Z,1009.87
2022-07-31T11:12:45.701Z,1009.84
2022-07-31T11:13:45.737Z,1009.73
2022-07-31T11:14:45.774Z,1009.70
2022-07-31T11:15:45.813Z,1009.78
2022-07-31T11:16:45.847Z,1009.79
2022-07-31T11:18:22.298Z,1009.80
2022-07-31T11:18:45.924Z,1009.86
2022-07-31T11:19:45.962Z,1009.89
2022-07-31T11:20:45.991Z,1009.95
2022-07-31T11:21:46.028Z,1010.07
2022-07-31T11:22:46.065Z,1010.13
2022-07-31T11:23:55.934Z,1010.03
2022-07-31T11:24:46.133Z,1010.06
2022-07-31T11:25:46.167Z,1010.09
2022-07-31T11:26:46.202Z,1009.97
2022-07-31T11:27:46.239Z,1009.94
2022-07-31T11:28:46.270Z,1009.89
2022-07-31T11:29:58.579Z,1009.81
2022-07-31T11:30:46.339Z,1009.98
2022-07-31T11:31:46.376Z,1009.85
2022-07-31T11:32:46.410Z,1009.73
2022-07-31T11:33:46.444Z,1009.73
2022-07-31T11:34:46.482Z,1009.83
2022-07-31T11:35:46.518Z,1009.58
2022-07-31T11:36:51.031Z,1009.73
2022-07-31T11:37:58.165Z,1009.76
2022-07-31T11:38:46.942Z,1009.98
2022-07-31T11:39:51.736Z,1009.93
2022-07-31T11:40:46.689Z,1009.98
2022-07-31T11:41:46.724Z,1009.78
2022-07-31T11:42:55.736Z,1009.95
2022-07-31T11:43:46.801Z,1009.71
2022-07-31T11:44:46.831Z,1009.81
2022-07-31T11:45:46.863Z,1009.74
2022-07-31T11:46:46.898Z,1009.87
2022-07-31T11:48:10.811Z,1009.92
2022-07-31T11:48:46.984Z,1009.89
2022-07-31T11:49:49.414Z,1009.90
2022-07-31T11:50:47.038Z,1009.85
2022-07-31T11:51:47.072Z,1009.81
2022-07-31T11:52:47.104Z,1009.77
2022-07-31T11:53:54.112Z,1009.80
2022-07-31T11:54:47.180Z,1009.66
2022-07-31T11:55:47.214Z,1009.53
2022-07-31T11:56:47.248Z,1009.51
2022-07-31T11:57:52.515Z,1009.57
2022-07-31T11:58:47.319Z,1009.57
2022-07-31T11:59:49.666Z,1009.68
2022-07-31T12:00:47.389Z,1009.71
2022-07-31T12:01:47.423Z,1009.77
2022-07-31T12:02:47.531Z,1009.59
2022-07-31T12:03:47.495Z,1009.69
2022-07-31T12:04:47.530Z,1009.61
2022-07-31T12:05:47.566Z,1009.57
2022-07-31T12:06:47.602Z,1009.55